sensor_id;sensor_type;location;lat;lon;timestamp;P1;durP1;ratioP1;P2;durP2;ratioP2
22939;SDS011;11636;52.086;5.090;2022-12-24T00:00:01;28.23;;;5.07;;
22939;SDS011;11636;52.086;5.090;2022-12-24T00:02:34;23.20;;;5.60;;
22939;SDS011;11636;52.086;5.090;2022-12-24T00:05:07;36.22;;;6.45;;
22939;SDS011;11636;52.086;5.090;2022-12-24T00:07:42;30.23;;;5.93;;
22939;SDS011;11636;52.086;5.090;2022-12-24T00:10:15;34.47;;;7.35;;
22939;SDS011;11636;52.086;5.090;2022-12-24T00:12:58;26.95;;;5.13;;
22939;SDS011;11636;52.086;5.090;2022-12-24T00:15:26;25.90;;;6.68;;
22939;SDS011;11636;52.086;5.090;2022-12-24T00:17:59;31.05;;;5.68;;
22939;SDS011;11636;52.086;5.090;2022-12-24T00:20:32;34.92;;;6.13;;
22939;SDS011;11636;52.086;5.090;2022-12-24T00:23:05;28.88;;;5.72;;
22939;SDS011;11636;52.086;5.090;2022-12-24T00:25:32;37.40;;;6.20;;
22939;SDS011;11636;52.086;5.090;2022-12-24T00:28:06;38.78;;;7.45;;
22939;SDS011;11636;52.086;5.090;2022-12-24T00:30:33;33.88;;;6.75;;
22939;SDS011;11636;52.086;5.090;2022-12-24T00:33:04;39.13;;;6.85;;
22939;SDS011;11636;52.086;5.090;2022-12-24T00:35:38;29.52;;;4.93;;
22939;SDS011;11636;52.086;5.090;2022-12-24T00:38:08;38.75;;;6.88;;
22939;SDS011;11636;52.086;5.090;2022-12-24T00:40:41;39.78;;;7.75;;
22939;SDS011;11636;52.086;5.090;2022-12-24T00:43:08;32.88;;;6.53;;
22939;SDS011;11636;52.086;5.090;2022-12-24T00:45:41;30.10;;;5.47;;
22939;SDS011;11636;52.086;5.090;2022-12-24T00:48:10;36.05;;;7.20;;
22939;SDS011;11636;52.086;5.090;2022-12-24T00:50:37;37.30;;;6.72;;
22939;SDS011;11636;52.086;5.090;2022-12-24T00:53:10;28.10;;;5.47;;
22939;SDS011;11636;52.086;5.090;2022-12-24T00:55:43;39.47;;;7.50;;
22939;SDS011;11636;52.086;5.090;2022-12-24T00:58:10;37.33;;;6.43;;
22939;SDS011;11636;52.086;5.090;2022-12-24T01:00:44;30.33;;;6.68;;
22939;SDS011;11636;52.086;5.090;2022-12-24T01:03:16;34.15;;;6.35;;
22939;SDS011;11636;52.086;5.090;2022-12-24T01:05:43;42.25;;;7.80;;
22939;SDS011;11636;52.086;5.090;2022-12-24T01:08:17;27.98;;;6.03;;
22939;SDS011;11636;52.086;5.090;2022-12-24T01:10:44;30.48;;;5.38;;
22939;SDS011;11636;52.086;5.090;2022-12-24T01:13:19;36.25;;;6.40;;
22939;SDS011;11636;52.086;5.090;2022-12-24T01:15:45;22.25;;;4.88;;
22939;SDS011;11636;52.086;5.090;2022-12-24T01:18:19;31.15;;;5.43;;
22939;SDS011;11636;52.086;5.090;2022-12-24T01:20:55;30.80;;;5.88;;
22939;SDS011;11636;52.086;5.090;2022-12-24T01:23:30;30.13;;;6.07;;
22939;SDS011;11636;52.086;5.090;2022-12-24T01:26:00;35.10;;;5.88;;
22939;SDS011;11636;52.086;5.090;2022-12-24T01:28:34;29.60;;;5.72;;
22939;SDS011;11636;52.086;5.090;2022-12-24T01:31:09;31.73;;;5.07;;
22939;SDS011;11636;52.086;5.090;2022-12-24T01:33:47;25.60;;;5.15;;
22939;SDS011;11636;52.086;5.090;2022-12-24T01:36:21;22.45;;;4.72;;
22939;SDS011;11636;52.086;5.090;2022-12-24T01:38:48;35.03;;;6.30;;
22939;SDS011;11636;52.086;5.090;2022-12-24T01:41:22;37.00;;;6.00;;
22939;SDS011;11636;52.086;5.090;2022-12-24T01:44:37;25.58;;;4.93;;
22939;SDS011;11636;52.086;5.090;2022-12-24T01:49:43;30.48;;;5.32;;
22939;SDS011;11636;52.086;5.090;2022-12-24T01:52:18;33.17;;;5.43;;
22939;SDS011;11636;52.086;5.090;2022-12-24T01:54:59;34.35;;;6.45;;
22939;SDS011;11636;52.086;5.090;2022-12-24T01:57:37;19.77;;;3.42;;
22939;SDS011;11636;52.086;5.090;2022-12-24T02:00:14;32.55;;;5.15;;
22939;SDS011;11636;52.086;5.090;2022-12-24T02:02:51;30.08;;;4.97;;
22939;SDS011;11636;52.086;5.090;2022-12-24T02:07:56;23.33;;;4.60;;
22939;SDS011;11636;52.086;5.090;2022-12-24T02:10:25;26.40;;;5.10;;
22939;SDS011;11636;52.086;5.090;2022-12-24T02:13:05;30.50;;;5.03;;
22939;SDS011;11636;52.086;5.090;2022-12-24T02:21:35;29.38;;;5.20;;
22939;SDS011;11636;52.086;5.090;2022-12-24T02:38:11;35.53;;;5.85;;
22939;SDS011;11636;52.086;5.090;2022-12-24T02:40:55;37.03;;;6.57;;
22939;SDS011;11636;52.086;5.090;2022-12-24T02:43:28;30.40;;;6.10;;
22939;SDS011;11636;52.086;5.090;2022-12-24T02:46:13;28.35;;;4.78;;
22939;SDS011;11636;52.086;5.090;2022-12-24T02:48:43;31.95;;;5.88;;
22939;SDS011;11636;52.086;5.090;2022-12-24T02:51:23;32.55;;;5.10;;
22939;SDS011;11636;52.086;5.090;2022-12-24T02:53:50;31.98;;;5.80;;
22939;SDS011;11636;52.086;5.090;2022-12-24T02:56:29;27.08;;;5.35;;
22939;SDS011;11636;52.086;5.090;2022-12-24T03:04:50;28.58;;;4.72;;
22939;SDS011;11636;52.086;5.090;2022-12-24T03:10:54;25.38;;;4.20;;
22939;SDS011;11636;52.086;5.090;2022-12-24T03:13:25;29.52;;;5.68;;
22939;SDS011;11636;52.086;5.090;2022-12-24T03:16:00;30.40;;;5.32;;
22939;SDS011;11636;52.086;5.090;2022-12-24T03:18:38;33.30;;;5.85;;
22939;SDS011;11636;52.086;5.090;2022-12-24T03:24:02;41.40;;;6.40;;
22939;SDS011;11636;52.086;5.090;2022-12-24T03:26:30;41.63;;;7.60;;
22939;SDS011;11636;52.086;5.090;2022-12-24T03:29:08;37.60;;;5.82;;
22939;SDS011;11636;52.086;5.090;2022-12-24T03:34:16;42.13;;;6.80;;
22939;SDS011;11636;52.086;5.090;2022-12-24T03:36:50;40.95;;;7.03;;
22939;SDS011;11636;52.086;5.090;2022-12-24T03:39:17;55.20;;;8.15;;
22939;SDS011;11636;52.086;5.090;2022-12-24T03:41:58;40.55;;;6.53;;
22939;SDS011;11636;52.086;5.090;2022-12-24T03:44:25;39.88;;;6.28;;
22939;SDS011;11636;52.086;5.090;2022-12-24T03:46:58;39.53;;;6.78;;
22939;SDS011;11636;52.086;5.090;2022-12-24T03:49:25;38.65;;;5.60;;
22939;SDS011;11636;52.086;5.090;2022-12-24T03:52:05;41.38;;;7.40;;
22939;SDS011;11636;52.086;5.090;2022-12-24T03:54:32;48.38;;;7.82;;
22939;SDS011;11636;52.086;5.090;2022-12-24T03:57:05;41.45;;;7.72;;
22939;SDS011;11636;52.086;5.090;2022-12-24T03:59:38;46.92;;;7.10;;
22939;SDS011;11636;52.086;5.090;2022-12-24T04:02:08;42.00;;;7.28;;
22939;SDS011;11636;52.086;5.090;2022-12-24T04:04:39;39.85;;;6.90;;
22939;SDS011;11636;52.086;5.090;2022-12-24T04:07:11;40.72;;;6.28;;
22939;SDS011;11636;52.086;5.090;2022-12-24T04:09:38;36.17;;;6.82;;
22939;SDS011;11636;52.086;5.090;2022-12-24T04:12:20;37.88;;;6.72;;
22939;SDS011;11636;52.086;5.090;2022-12-24T04:14:46;33.90;;;6.60;;
22939;SDS011;11636;52.086;5.090;2022-12-24T04:17:25;42.30;;;6.03;;
22939;SDS011;11636;52.086;5.090;2022-12-24T04:19:52;33.47;;;6.20;;
22939;SDS011;11636;52.086;5.090;2022-12-24T04:22:19;41.72;;;6.55;;
22939;SDS011;11636;52.086;5.090;2022-12-24T04:24:53;30.35;;;5.55;;
22939;SDS011;11636;52.086;5.090;2022-12-24T04:27:26;30.70;;;5.32;;
22939;SDS011;11636;52.086;5.090;2022-12-24T04:29:56;30.92;;;5.72;;
22939;SDS011;11636;52.086;5.090;2022-12-24T04:32:36;35.90;;;6.47;;
22939;SDS011;11636;52.086;5.090;2022-12-24T04:35:03;45.83;;;6.25;;
22939;SDS011;11636;52.086;5.090;2022-12-24T04:37:37;33.97;;;6.32;;
22939;SDS011;11636;52.086;5.090;2022-12-24T04:40:03;34.92;;;5.40;;
22939;SDS011;11636;52.086;5.090;2022-12-24T04:42:38;32.40;;;5.47;;
22939;SDS011;11636;52.086;5.090;2022-12-24T04:45:06;30.27;;;5.80;;
22939;SDS011;11636;52.086;5.090;2022-12-24T04:47:46;34.83;;;5.65;;
22939;SDS011;11636;52.086;5.090;2022-12-24T04:50:19;29.85;;;5.10;;
22939;SDS011;11636;52.086;5.090;2022-12-24T04:52:58;41.80;;;7.55;;
22939;SDS011;11636;52.086;5.090;2022-12-24T04:55:32;34.72;;;5.75;;
22939;SDS011;11636;52.086;5.090;2022-12-24T04:57:59;25.85;;;5.30;;
22939;SDS011;11636;52.086;5.090;2022-12-24T05:00:38;36.03;;;6.07;;
22939;SDS011;11636;52.086;5.090;2022-12-24T05:03:14;35.05;;;5.60;;
22939;SDS011;11636;52.086;5.090;2022-12-24T05:05:44;36.88;;;5.10;;
22939;SDS011;11636;52.086;5.090;2022-12-24T05:08:28;37.80;;;5.72;;
22939;SDS011;11636;52.086;5.090;2022-12-24T05:10:57;32.35;;;6.13;;
22939;SDS011;11636;52.086;5.090;2022-12-24T05:13:31;27.20;;;4.72;;
22939;SDS011;11636;52.086;5.090;2022-12-24T05:16:12;33.65;;;6.43;;
22939;SDS011;11636;52.086;5.090;2022-12-24T05:18:51;41.85;;;6.63;;
22939;SDS011;11636;52.086;5.090;2022-12-24T05:21:19;45.10;;;7.45;;
22939;SDS011;11636;52.086;5.090;2022-12-24T05:23:56;43.63;;;6.43;;
22939;SDS011;11636;52.086;5.090;2022-12-24T05:26:45;43.20;;;6.40;;
22939;SDS011;11636;52.086;5.090;2022-12-24T05:29:26;37.30;;;6.18;;
22939;SDS011;11636;52.086;5.090;2022-12-24T05:31:59;34.75;;;5.47;;
22939;SDS011;11636;52.086;5.090;2022-12-24T05:34:32;45.67;;;6.22;;
22939;SDS011;11636;52.086;5.090;2022-12-24T05:37:07;42.08;;;6.70;;
22939;SDS011;11636;52.086;5.090;2022-12-24T05:39:37;45.78;;;6.72;;
22939;SDS011;11636;52.086;5.090;2022-12-24T05:42:18;41.03;;;6.93;;
22939;SDS011;11636;52.086;5.090;2022-12-24T05:44:45;35.55;;;6.43;;
22939;SDS011;11636;52.086;5.090;2022-12-24T05:47:18;34.15;;;6.15;;
22939;SDS011;11636;52.086;5.090;2022-12-24T05:49:45;40.28;;;6.63;;
22939;SDS011;11636;52.086;5.090;2022-12-24T05:52:26;40.60;;;7.00;;
22939;SDS011;11636;52.086;5.090;2022-12-24T05:54:52;34.75;;;5.97;;
22939;SDS011;11636;52.086;5.090;2022-12-24T05:57:29;40.33;;;6.55;;
22939;SDS011;11636;52.086;5.090;2022-12-24T06:00:03;32.83;;;6.40;;
22939;SDS011;11636;52.086;5.090;2022-12-24T06:02:38;39.60;;;5.82;;
22939;SDS011;11636;52.086;5.090;2022-12-24T06:05:12;33.90;;;6.32;;
22939;SDS011;11636;52.086;5.090;2022-12-24T06:07:39;52.88;;;8.25;;
22939;SDS011;11636;52.086;5.090;2022-12-24T06:10:06;45.05;;;8.18;;
22939;SDS011;11636;52.086;5.090;2022-12-24T06:12:44;45.67;;;6.30;;
22939;SDS011;11636;52.086;5.090;2022-12-24T06:15:11;44.80;;;7.82;;
22939;SDS011;11636;52.086;5.090;2022-12-24T06:17:49;45.30;;;7.95;;
22939;SDS011;11636;52.086;5.090;2022-12-24T06:20:16;37.42;;;6.55;;
22939;SDS011;11636;52.086;5.090;2022-12-24T06:22:55;43.97;;;7.05;;
22939;SDS011;11636;52.086;5.090;2022-12-24T06:25:22;45.17;;;7.22;;
22939;SDS011;11636;52.086;5.090;2022-12-24T06:27:55;41.38;;;5.70;;
22939;SDS011;11636;52.086;5.090;2022-12-24T06:30:21;42.00;;;6.97;;
22939;SDS011;11636;52.086;5.090;2022-12-24T06:32:56;45.45;;;6.95;;
22939;SDS011;11636;52.086;5.090;2022-12-24T06:35:30;51.33;;;7.88;;
22939;SDS011;11636;52.086;5.090;2022-12-24T06:38:04;53.10;;;8.18;;
22939;SDS011;11636;52.086;5.090;2022-12-24T06:40:37;52.45;;;8.05;;
22939;SDS011;11636;52.086;5.090;2022-12-24T06:43:08;53.80;;;8.88;;
22939;SDS011;11636;52.086;5.090;2022-12-24T06:45:35;48.42;;;7.45;;
22939;SDS011;11636;52.086;5.090;2022-12-24T06:48:09;38.20;;;7.30;;
22939;SDS011;11636;52.086;5.090;2022-12-24T06:50:41;59.08;;;8.65;;
22939;SDS011;11636;52.086;5.090;2022-12-24T06:53:22;58.05;;;8.95;;
22939;SDS011;11636;52.086;5.090;2022-12-24T06:55:48;49.33;;;7.45;;
22939;SDS011;11636;52.086;5.090;2022-12-24T06:58:15;52.58;;;6.90;;
22939;SDS011;11636;52.086;5.090;2022-12-24T07:00:49;56.95;;;8.10;;
22939;SDS011;11636;52.086;5.090;2022-12-24T07:03:23;60.33;;;8.45;;
22939;SDS011;11636;52.086;5.090;2022-12-24T07:05:50;55.25;;;8.77;;
22939;SDS011;11636;52.086;5.090;2022-12-24T07:08:26;37.03;;;7.10;;
22939;SDS011;11636;52.086;5.090;2022-12-24T07:11:03;58.42;;;8.55;;
22939;SDS011;11636;52.086;5.090;2022-12-24T07:13:30;55.70;;;7.72;;
22939;SDS011;11636;52.086;5.090;2022-12-24T07:16:06;56.80;;;7.97;;
22939;SDS011;11636;52.086;5.090;2022-12-24T07:18:33;53.10;;;8.35;;
22939;SDS011;11636;52.086;5.090;2022-12-24T07:21:07;48.45;;;7.57;;
22939;SDS011;11636;52.086;5.090;2022-12-24T07:23:34;54.40;;;8.05;;
22939;SDS011;11636;52.086;5.090;2022-12-24T07:26:09;52.72;;;8.10;;
22939;SDS011;11636;52.086;5.090;2022-12-24T07:28:36;50.28;;;7.57;;
22939;SDS011;11636;52.086;5.090;2022-12-24T07:31:10;54.53;;;7.80;;
22939;SDS011;11636;52.086;5.090;2022-12-24T07:33:44;46.83;;;7.28;;
22939;SDS011;11636;52.086;5.090;2022-12-24T07:36:18;58.53;;;8.18;;
22939;SDS011;11636;52.086;5.090;2022-12-24T07:38:53;35.53;;;6.95;;
22939;SDS011;11636;52.086;5.090;2022-12-24T07:41:20;38.33;;;6.60;;
22939;SDS011;11636;52.086;5.090;2022-12-24T07:43:54;50.03;;;7.72;;
22939;SDS011;11636;52.086;5.090;2022-12-24T07:46:28;50.60;;;7.30;;
22939;SDS011;11636;52.086;5.090;2022-12-24T07:49:01;43.63;;;7.28;;
22939;SDS011;11636;52.086;5.090;2022-12-24T07:51:34;54.35;;;7.68;;
22939;SDS011;11636;52.086;5.090;2022-12-24T07:54:09;46.45;;;8.15;;
22939;SDS011;11636;52.086;5.090;2022-12-24T07:56:36;48.33;;;7.70;;
22939;SDS011;11636;52.086;5.090;2022-12-24T07:59:12;45.03;;;6.30;;
22939;SDS011;11636;52.086;5.090;2022-12-24T08:01:39;44.72;;;6.80;;
22939;SDS011;11636;52.086;5.090;2022-12-24T08:04:13;45.17;;;7.57;;
22939;SDS011;11636;52.086;5.090;2022-12-24T08:06:47;48.92;;;7.38;;
22939;SDS011;11636;52.086;5.090;2022-12-24T08:09:14;42.15;;;7.57;;
22939;SDS011;11636;52.086;5.090;2022-12-24T08:11:47;39.25;;;6.63;;
22939;SDS011;11636;52.086;5.090;2022-12-24T08:14:17;50.78;;;7.50;;
22939;SDS011;11636;52.086;5.090;2022-12-24T08:16:51;51.00;;;7.10;;
22939;SDS011;11636;52.086;5.090;2022-12-24T08:19:18;52.20;;;7.25;;
22939;SDS011;11636;52.086;5.090;2022-12-24T08:21:52;44.13;;;7.28;;
22939;SDS011;11636;52.086;5.090;2022-12-24T08:24:19;48.40;;;7.72;;
22939;SDS011;11636;52.086;5.090;2022-12-24T08:26:53;40.38;;;6.88;;
22939;SDS011;11636;52.086;5.090;2022-12-24T08:29:26;41.65;;;6.60;;
22939;SDS011;11636;52.086;5.090;2022-12-24T08:31:53;41.90;;;7.05;;
22939;SDS011;11636;52.086;5.090;2022-12-24T08:34:20;56.83;;;7.47;;
22939;SDS011;11636;52.086;5.090;2022-12-24T08:36:55;44.13;;;7.20;;
22939;SDS011;11636;52.086;5.090;2022-12-24T08:39:21;51.53;;;7.75;;
22939;SDS011;11636;52.086;5.090;2022-12-24T08:41:55;47.35;;;6.85;;
22939;SDS011;11636;52.086;5.090;2022-12-24T08:44:22;41.47;;;6.47;;
22939;SDS011;11636;52.086;5.090;2022-12-24T08:46:55;48.63;;;7.35;;
22939;SDS011;11636;52.086;5.090;2022-12-24T08:49:28;49.92;;;8.25;;
22939;SDS011;11636;52.086;5.090;2022-12-24T08:51:56;48.50;;;7.40;;
22939;SDS011;11636;52.086;5.090;2022-12-24T08:54:29;43.80;;;8.10;;
22939;SDS011;11636;52.086;5.090;2022-12-24T08:57:02;54.00;;;7.50;;
22939;SDS011;11636;52.086;5.090;2022-12-24T08:59:35;48.63;;;7.07;;
22939;SDS011;11636;52.086;5.090;2022-12-24T09:02:07;40.00;;;7.27;;
22939;SDS011;11636;52.086;5.090;2022-12-24T09:04:41;51.30;;;7.95;;
22939;SDS011;11636;52.086;5.090;2022-12-24T09:07:09;43.03;;;7.00;;
22939;SDS011;11636;52.086;5.090;2022-12-24T09:09:43;44.80;;;6.90;;
22939;SDS011;11636;52.086;5.090;2022-12-24T09:12:10;47.05;;;8.27;;
22939;SDS011;11636;52.086;5.090;2022-12-24T09:14:43;47.22;;;7.85;;
22939;SDS011;11636;52.086;5.090;2022-12-24T09:17:11;45.55;;;7.18;;
22939;SDS011;11636;52.086;5.090;2022-12-24T09:19:44;38.63;;;6.88;;
22939;SDS011;11636;52.086;5.090;2022-12-24T09:22:12;38.30;;;7.50;;
22939;SDS011;11636;52.086;5.090;2022-12-24T09:24:39;43.53;;;8.00;;
22939;SDS011;11636;52.086;5.090;2022-12-24T09:27:15;38.58;;;7.25;;
22939;SDS011;11636;52.086;5.090;2022-12-24T09:29:48;45.38;;;7.30;;
22939;SDS011;11636;52.086;5.090;2022-12-24T09:32:21;42.63;;;7.38;;
22939;SDS011;11636;52.086;5.090;2022-12-24T09:34:48;32.72;;;6.28;;
22939;SDS011;11636;52.086;5.090;2022-12-24T09:37:18;42.42;;;7.13;;
22939;SDS011;11636;52.086;5.090;2022-12-24T09:39:52;37.50;;;5.85;;
22939;SDS011;11636;52.086;5.090;2022-12-24T09:45:21;38.95;;;6.28;;
22939;SDS011;11636;52.086;5.090;2022-12-24T09:48:16;38.30;;;6.72;;
22939;SDS011;11636;52.086;5.090;2022-12-24T09:50:55;43.22;;;7.65;;
22939;SDS011;11636;52.086;5.090;2022-12-24T09:53:44;37.05;;;5.93;;
22939;SDS011;11636;52.086;5.090;2022-12-24T09:56:26;35.58;;;5.63;;
22939;SDS011;11636;52.086;5.090;2022-12-24T09:59:08;38.20;;;5.85;;
22939;SDS011;11636;52.086;5.090;2022-12-24T10:01:51;37.67;;;6.00;;
22939;SDS011;11636;52.086;5.090;2022-12-24T10:04:27;41.80;;;6.25;;
22939;SDS011;11636;52.086;5.090;2022-12-24T10:15:38;33.03;;;5.88;;
22939;SDS011;11636;52.086;5.090;2022-12-24T10:21:26;37.00;;;6.45;;
22939;SDS011;11636;52.086;5.090;2022-12-24T10:24:15;47.83;;;8.45;;
22939;SDS011;11636;52.086;5.090;2022-12-24T10:27:16;36.88;;;7.07;;
22939;SDS011;11636;52.086;5.090;2022-12-24T10:29:56;40.70;;;7.22;;
22939;SDS011;11636;52.086;5.090;2022-12-24T10:32:28;41.83;;;7.38;;
22939;SDS011;11636;52.086;5.090;2022-12-24T10:37:47;40.70;;;7.38;;
22939;SDS011;11636;52.086;5.090;2022-12-24T10:43:20;25.63;;;6.15;;
22939;SDS011;11636;52.086;5.090;2022-12-24T10:45:57;43.83;;;8.20;;
22939;SDS011;11636;52.086;5.090;2022-12-24T10:48:35;47.70;;;8.15;;
22939;SDS011;11636;52.086;5.090;2022-12-24T10:54:05;37.67;;;7.43;;
22939;SDS011;11636;52.086;5.090;2022-12-24T10:56:39;39.20;;;6.85;;
22939;SDS011;11636;52.086;5.090;2022-12-24T10:59:26;44.47;;;7.25;;
22939;SDS011;11636;52.086;5.090;2022-12-24T11:02:09;35.85;;;5.93;;
22939;SDS011;11636;52.086;5.090;2022-12-24T11:05:05;34.17;;;7.38;;
22939;SDS011;11636;52.086;5.090;2022-12-24T11:08:00;32.70;;;6.90;;
22939;SDS011;11636;52.086;5.090;2022-12-24T11:10:39;34.30;;;5.80;;
22939;SDS011;11636;52.086;5.090;2022-12-24T11:18:55;29.40;;;5.75;;
22939;SDS011;11636;52.086;5.090;2022-12-24T11:21:34;35.33;;;6.30;;
22939;SDS011;11636;52.086;5.090;2022-12-24T11:26:44;31.88;;;5.55;;
22939;SDS011;11636;52.086;5.090;2022-12-24T11:29:24;24.77;;;5.13;;
22939;SDS011;11636;52.086;5.090;2022-12-24T11:32:14;26.05;;;5.43;;
22939;SDS011;11636;52.086;5.090;2022-12-24T11:34:50;28.73;;;5.03;;
22939;SDS011;11636;52.086;5.090;2022-12-24T11:37:23;25.65;;;4.93;;
22939;SDS011;11636;52.086;5.090;2022-12-24T11:39:51;22.52;;;4.78;;
22939;SDS011;11636;52.086;5.090;2022-12-24T11:45:00;29.85;;;4.78;;
22939;SDS011;11636;52.086;5.090;2022-12-24T11:47:32;29.05;;;4.68;;
22939;SDS011;11636;52.086;5.090;2022-12-24T11:58:41;24.05;;;4.70;;
22939;SDS011;11636;52.086;5.090;2022-12-24T12:01:23;23.27;;;5.18;;
22939;SDS011;11636;52.086;5.090;2022-12-24T12:04:29;32.60;;;6.03;;
22939;SDS011;11636;52.086;5.090;2022-12-24T12:07:14;30.00;;;5.03;;
22939;SDS011;11636;52.086;5.090;2022-12-24T12:09:52;26.52;;;5.80;;
22939;SDS011;11636;52.086;5.090;2022-12-24T12:12:33;25.80;;;6.32;;
22939;SDS011;11636;52.086;5.090;2022-12-24T12:15:08;27.45;;;6.20;;
22939;SDS011;11636;52.086;5.090;2022-12-24T12:17:50;20.95;;;4.80;;
22939;SDS011;11636;52.086;5.090;2022-12-24T12:20:37;30.27;;;5.95;;
22939;SDS011;11636;52.086;5.090;2022-12-24T12:23:25;22.20;;;4.68;;
22939;SDS011;11636;52.086;5.090;2022-12-24T12:26:09;22.02;;;4.82;;
22939;SDS011;11636;52.086;5.090;2022-12-24T12:31:41;22.38;;;5.03;;
22939;SDS011;11636;52.086;5.090;2022-12-24T12:37:04;26.45;;;5.38;;
22939;SDS011;11636;52.086;5.090;2022-12-24T12:39:40;28.20;;;5.33;;
22939;SDS011;11636;52.086;5.090;2022-12-24T12:42:17;27.08;;;5.00;;
22939;SDS011;11636;52.086;5.090;2022-12-24T12:45:20;25.45;;;4.70;;
22939;SDS011;11636;52.086;5.090;2022-12-24T12:47:59;28.15;;;6.40;;
22939;SDS011;11636;52.086;5.090;2022-12-24T12:56:48;24.75;;;5.05;;
22939;SDS011;11636;52.086;5.090;2022-12-24T12:59:25;30.67;;;5.78;;
22939;SDS011;11636;52.086;5.090;2022-12-24T13:11:24;20.92;;;4.40;;
22939;SDS011;11636;52.086;5.090;2022-12-24T13:14:07;26.13;;;5.13;;
22939;SDS011;11636;52.086;5.090;2022-12-24T13:17:13;37.60;;;6.07;;
22939;SDS011;11636;52.086;5.090;2022-12-24T13:20:16;22.45;;;5.18;;
22939;SDS011;11636;52.086;5.090;2022-12-24T13:23:07;20.80;;;4.90;;
22939;SDS011;11636;52.086;5.090;2022-12-24T13:25:41;20.60;;;5.03;;
22939;SDS011;11636;52.086;5.090;2022-12-24T13:36:04;22.55;;;4.28;;
22939;SDS011;11636;52.086;5.090;2022-12-24T13:38:45;19.92;;;4.15;;
22939;SDS011;11636;52.086;5.090;2022-12-24T13:49:34;20.60;;;4.15;;
22939;SDS011;11636;52.086;5.090;2022-12-24T13:52:17;28.90;;;4.82;;
22939;SDS011;11636;52.086;5.090;2022-12-24T13:57:34;30.40;;;5.03;;
22939;SDS011;11636;52.086;5.090;2022-12-24T14:02:59;21.20;;;4.20;;
22939;SDS011;11636;52.086;5.090;2022-12-24T14:08:43;28.65;;;4.78;;
22939;SDS011;11636;52.086;5.090;2022-12-24T14:11:12;21.08;;;4.50;;
22939;SDS011;11636;52.086;5.090;2022-12-24T14:14:07;20.08;;;4.32;;
22939;SDS011;11636;52.086;5.090;2022-12-24T14:16:51;22.88;;;3.70;;
22939;SDS011;11636;52.086;5.090;2022-12-24T14:19:24;23.13;;;3.90;;
22939;SDS011;11636;52.086;5.090;2022-12-24T14:25:15;30.35;;;4.65;;
22939;SDS011;11636;52.086;5.090;2022-12-24T14:27:57;30.98;;;5.65;;
22939;SDS011;11636;52.086;5.090;2022-12-24T14:30:29;26.92;;;5.18;;
22939;SDS011;11636;52.086;5.090;2022-12-24T14:33:02;32.15;;;5.20;;
22939;SDS011;11636;52.086;5.090;2022-12-24T14:35:37;28.15;;;5.28;;
22939;SDS011;11636;52.086;5.090;2022-12-24T14:38:12;27.13;;;4.88;;
22939;SDS011;11636;52.086;5.090;2022-12-24T14:55:26;22.98;;;5.43;;
22939;SDS011;11636;52.086;5.090;2022-12-24T15:00:46;34.47;;;6.97;;
22939;SDS011;11636;52.086;5.090;2022-12-24T15:03:25;31.55;;;5.22;;
22939;SDS011;11636;52.086;5.090;2022-12-24T15:06:02;24.92;;;5.22;;
22939;SDS011;11636;52.086;5.090;2022-12-24T15:08:38;20.25;;;4.93;;
22939;SDS011;11636;52.086;5.090;2022-12-24T15:11:15;25.50;;;4.38;;
22939;SDS011;11636;52.086;5.090;2022-12-24T15:13:51;24.60;;;4.25;;
22939;SDS011;11636;52.086;5.090;2022-12-24T15:16:26;15.30;;;3.60;;
22939;SDS011;11636;52.086;5.090;2022-12-24T15:19:03;16.27;;;3.30;;
22939;SDS011;11636;52.086;5.090;2022-12-24T15:21:37;20.13;;;4.22;;
22939;SDS011;11636;52.086;5.090;2022-12-24T15:26:51;20.88;;;4.13;;
22939;SDS011;11636;52.086;5.090;2022-12-24T15:29:25;22.83;;;4.05;;
22939;SDS011;11636;52.086;5.090;2022-12-24T15:32:01;27.17;;;5.00;;
22939;SDS011;11636;52.086;5.090;2022-12-24T15:34:42;24.77;;;4.78;;
22939;SDS011;11636;52.086;5.090;2022-12-24T15:39:57;13.35;;;3.20;;
22939;SDS011;11636;52.086;5.090;2022-12-24T15:42:35;10.25;;;2.78;;
22939;SDS011;11636;52.086;5.090;2022-12-24T15:45:20;10.38;;;2.60;;
22939;SDS011;11636;52.086;5.090;2022-12-24T15:47:59;13.48;;;3.33;;
22939;SDS011;11636;52.086;5.090;2022-12-24T15:50:43;11.77;;;3.53;;
22939;SDS011;11636;52.086;5.090;2022-12-24T15:53:23;18.40;;;4.85;;
22939;SDS011;11636;52.086;5.090;2022-12-24T15:58:39;16.17;;;4.70;;
22939;SDS011;11636;52.086;5.090;2022-12-24T16:06:24;20.80;;;4.93;;
22939;SDS011;11636;52.086;5.090;2022-12-24T16:08:59;20.08;;;4.30;;
22939;SDS011;11636;52.086;5.090;2022-12-24T16:11:35;26.88;;;5.85;;
22939;SDS011;11636;52.086;5.090;2022-12-24T16:14:12;18.45;;;4.63;;
22939;SDS011;11636;52.086;5.090;2022-12-24T16:16:47;12.98;;;3.65;;
22939;SDS011;11636;52.086;5.090;2022-12-24T16:19:30;16.73;;;4.85;;
22939;SDS011;11636;52.086;5.090;2022-12-24T16:22:05;12.98;;;4.78;;
22939;SDS011;11636;52.086;5.090;2022-12-24T16:27:31;12.52;;;4.35;;
22939;SDS011;11636;52.086;5.090;2022-12-24T16:29:58;11.10;;;3.75;;
22939;SDS011;11636;52.086;5.090;2022-12-24T16:32:32;12.07;;;3.70;;
22939;SDS011;11636;52.086;5.090;2022-12-24T16:35:02;9.77;;;3.88;;
22939;SDS011;11636;52.086;5.090;2022-12-24T16:37:30;8.70;;;3.65;;
22939;SDS011;11636;52.086;5.090;2022-12-24T16:40:04;12.30;;;4.72;;
22939;SDS011;11636;52.086;5.090;2022-12-24T16:42:41;9.40;;;3.80;;
22939;SDS011;11636;52.086;5.090;2022-12-24T16:45:33;9.67;;;3.70;;
22939;SDS011;11636;52.086;5.090;2022-12-24T16:48:01;8.85;;;3.67;;
22939;SDS011;11636;52.086;5.090;2022-12-24T16:50:37;10.15;;;3.58;;
22939;SDS011;11636;52.086;5.090;2022-12-24T16:53:16;9.68;;;3.65;;
22939;SDS011;11636;52.086;5.090;2022-12-24T16:55:50;6.97;;;3.30;;
22939;SDS011;11636;52.086;5.090;2022-12-24T16:58:24;9.90;;;3.50;;
22939;SDS011;11636;52.086;5.090;2022-12-24T17:00:51;8.25;;;3.45;;
22939;SDS011;11636;52.086;5.090;2022-12-24T17:03:25;8.07;;;3.90;;
22939;SDS011;11636;52.086;5.090;2022-12-24T17:05:52;10.13;;;3.92;;
22939;SDS011;11636;52.086;5.090;2022-12-24T17:08:30;8.40;;;4.35;;
22939;SDS011;11636;52.086;5.090;2022-12-24T17:10:57;14.80;;;5.75;;
22939;SDS011;11636;52.086;5.090;2022-12-24T17:13:30;15.43;;;6.10;;
22939;SDS011;11636;52.086;5.090;2022-12-24T17:15:56;12.32;;;5.80;;
22939;SDS011;11636;52.086;5.090;2022-12-24T17:18:32;12.15;;;6.03;;
22939;SDS011;11636;52.086;5.090;2022-12-24T17:21:05;12.57;;;6.38;;
22939;SDS011;11636;52.086;5.090;2022-12-24T17:23:39;9.77;;;5.70;;
22939;SDS011;11636;52.086;5.090;2022-12-24T17:26:09;12.85;;;6.57;;
22939;SDS011;11636;52.086;5.090;2022-12-24T17:28:43;9.75;;;5.07;;
22939;SDS011;11636;52.086;5.090;2022-12-24T17:31:11;11.90;;;6.13;;
22939;SDS011;11636;52.086;5.090;2022-12-24T17:33:48;12.02;;;6.30;;
22939;SDS011;11636;52.086;5.090;2022-12-24T17:36:19;9.10;;;5.53;;
22939;SDS011;11636;52.086;5.090;2022-12-24T17:38:53;13.13;;;6.53;;
22939;SDS011;11636;52.086;5.090;2022-12-24T17:41:20;12.63;;;6.18;;
22939;SDS011;11636;52.086;5.090;2022-12-24T17:43:47;9.85;;;5.82;;
22939;SDS011;11636;52.086;5.090;2022-12-24T17:46:21;16.38;;;7.22;;
22939;SDS011;11636;52.086;5.090;2022-12-24T17:48:49;13.27;;;6.45;;
22939;SDS011;11636;52.086;5.090;2022-12-24T17:51:24;11.00;;;5.95;;
22939;SDS011;11636;52.086;5.090;2022-12-24T17:53:58;14.57;;;7.15;;
22939;SDS011;11636;52.086;5.090;2022-12-24T17:56:26;18.30;;;7.45;;
22939;SDS011;11636;52.086;5.090;2022-12-24T17:59:00;12.40;;;6.65;;
22939;SDS011;11636;52.086;5.090;2022-12-24T18:01:27;19.45;;;8.88;;
22939;SDS011;11636;52.086;5.090;2022-12-24T18:04:04;14.20;;;7.80;;